Time;durP1;ratioP1;P1;durP2;ratioP2;P2;SDS_P1;SDS_P2;PMS_P1;PMS_P2;Temp;Humidity;BMP_temperature;BMP_pressure;BME280_temperature;BME280_humidity;BME280_pressure;Samples;Min_cycle;Max_cycle;Signal;HPM_P1;HPM_P2
2022/07/24 00:01:13;;;;;;;14.50;13.20;;;;;;;22.72;71.89;157209.72;5091841;28;20492;-83
2022/07/24 00:03:41;;;;;;;13.80;12.60;;;;;;;22.68;72.12;157199.31;5073185;28;20461;-83
2022/07/24 00:06:08;;;;;;;13.77;12.23;;;;;;;22.63;72.41;157186.25;5073836;28;20949;-83
2022/07/24 00:08:35;;;;;;;15.03;13.63;;;;;;;22.64;72.00;157188.81;5073389;28;20529;-83
2022/07/24 00:11:02;;;;;;;14.97;13.57;;;;;;;22.64;71.86;157188.81;5073145;28;20471;-83
2022/07/24 00:13:28;;;;;;;13.70;12.30;;;;;;;22.65;71.65;157190.13;5068939;28;20485;-83
2022/07/24 00:15:55;;;;;;;13.20;11.97;;;;;;;22.62;71.94;157183.56;5081797;28;20507;-83
2022/07/24 00:18:22;;;;;;;13.60;12.40;;;;;;;22.62;71.66;157183.56;5059705;28;20456;-83
2022/07/24 00:20:50;;;;;;;13.60;12.40;;;;;;;22.60;71.46;157177.03;5073253;28;20449;-83
2022/07/24 00:23:17;;;;;;;14.30;13.10;;;;;;;22.58;71.20;157171.81;5083050;28;20975;-83
2022/07/24 00:25:43;;;;;;;13.20;12.00;;;;;;;22.56;71.55;157167.88;5084054;28;20556;-83
2022/07/24 00:28:10;;;;;;;13.80;12.50;;;;;;;22.55;70.33;157165.28;5081533;28;20449;-83
2022/07/24 00:30:37;;;;;;;13.70;12.30;;;;;;;22.54;71.09;157162.66;5083061;28;20491;-83
2022/07/24 00:33:04;;;;;;;13.20;12.00;;;;;;;22.52;70.62;157156.13;5069788;28;20841;-83
2022/07/24 00:35:31;;;;;;;12.90;11.80;;;;;;;22.50;70.84;157152.22;5087010;28;20449;-83
2022/07/24 00:37:59;;;;;;;11.80;10.60;;;;;;;22.45;70.60;157139.16;5082375;28;20469;-83
2022/07/24 00:40:26;;;;;;;13.03;11.80;;;;;;;22.42;70.64;157131.31;5069753;28;20544;-83
2022/07/24 00:42:53;;;;;;;12.80;11.70;;;;;;;22.41;70.42;157128.69;5062168;28;20528;-83
2022/07/24 00:45:20;;;;;;;12.40;11.20;;;;;;;22.37;69.96;157119.53;5064601;28;20553;-83
2022/07/24 00:47:47;;;;;;;11.30;10.10;;;;;;;22.36;70.12;157116.97;5086207;28;20520;-83
2022/07/24 00:50:13;;;;;;;12.33;11.10;;;;;;;22.32;69.96;157105.16;5066312;28;20506;-83
2022/07/24 00:52:40;;;;;;;13.00;11.70;;;;;;;22.31;69.69;157102.59;5081589;28;20441;-83
2022/07/24 00:55:09;;;;;;;11.60;10.50;;;;;;;22.30;69.94;157099.94;5071329;28;20457;-83
2022/07/24 00:57:36;;;;;;;12.20;11.10;;;;;;;22.24;71.20;157084.31;5085245;28;20504;-83
2022/07/24 01:00:06;;;;;;;12.03;11.03;;;;;;;22.18;71.40;157069.94;5069585;28;20441;-83
2022/07/24 01:02:33;;;;;;;13.60;12.40;;;;;;;22.14;71.62;157058.16;5072570;28;20448;-83
2022/07/24 01:05:00;;;;;;;12.03;11.00;;;;;;;22.09;71.15;157045.09;5086930;28;20441;-83
2022/07/24 01:07:26;;;;;;;13.53;12.30;;;;;;;22.04;71.37;157033.38;5090721;28;20504;-83
2022/07/24 01:09:53;;;;;;;13.03;11.90;;;;;;;22.01;71.44;157024.22;5059892;28;21011;-83
2022/07/24 01:12:22;;;;;;;13.20;12.00;;;;;;;21.95;72.46;157008.56;5087505;28;20477;-83
2022/07/24 01:14:49;;;;;;;12.40;11.20;;;;;;;21.93;72.13;157003.31;5086653;28;20955;-83
2022/07/24 01:17:15;;;;;;;12.03;10.87;;;;;;;21.90;72.02;156995.47;5085241;28;20453;-83
2022/07/24 01:19:42;;;;;;;12.27;11.13;;;;;;;21.87;72.05;156987.69;5085208;28;20460;-83
2022/07/24 01:22:10;;;;;;;13.53;12.13;;;;;;;21.82;72.46;156977.16;5074855;28;20444;-83
2022/07/24 01:24:37;;;;;;;12.33;11.23;;;;;;;21.83;72.72;156978.47;5091869;28;20475;-82
2022/07/24 01:27:04;;;;;;;11.90;10.77;;;;;;;21.80;72.01;156970.63;5088009;28;20877;-83
2022/07/24 01:29:31;;;;;;;12.50;11.30;;;;;;;21.77;71.83;156962.78;5082910;28;20460;-83
2022/07/24 01:31:58;;;;;;;11.13;10.13;;;;;;;21.81;70.99;156973.25;5092813;28;20465;-83
2022/07/24 01:34:25;;;;;;;11.20;10.17;;;;;;;21.87;70.89;156987.69;5093261;28;20528;-83
2022/07/24 01:36:52;;;;;;;11.87;10.70;;;;;;;21.89;71.42;156992.88;5088931;28;20437;-83
2022/07/24 01:39:20;;;;;;;11.93;10.77;;;;;;;21.86;72.82;156986.38;5069808;28;20449;-83
2022/07/24 01:41:47;;;;;;;12.43;11.20;;;;;;;21.83;71.93;156979.78;5073282;28;20490;-83
2022/07/24 01:44:14;;;;;;;11.40;10.40;;;;;;;21.79;72.06;156969.31;5067341;28;20935;-83
2022/07/24 01:46:40;;;;;;;12.20;11.10;;;;;;;21.74;72.03;156956.25;5086942;28;20443;-83
2022/07/24 01:49:07;;;;;;;11.20;10.10;;;;;;;21.70;73.01;156945.84;5075233;28;20437;-82
2022/07/24 01:51:34;;;;;;;10.83;9.80;;;;;;;21.67;72.72;156938.00;5088728;28;20981;-83
2022/07/24 01:54:02;;;;;;;11.57;10.43;;;;;;;21.60;72.43;156919.75;5068267;28;20532;-82
2022/07/24 01:56:30;;;;;;;11.77;10.70;;;;;;;21.60;72.61;156919.75;5089315;28;20602;-83
2022/07/24 01:58:57;;;;;;;12.80;11.70;;;;;;;21.56;72.57;156907.97;5066551;28;20475;-82
2022/07/24 02:01:24;;;;;;;11.80;10.83;;;;;;;21.50;73.53;156893.59;5083350;28;20458;-83
2022/07/24 02:03:50;;;;;;;11.67;10.60;;;;;;;21.46;72.91;156883.19;5070229;28;20449;-82
2022/07/24 02:06:18;;;;;;;12.27;11.00;;;;;;;21.43;73.27;156874.03;5084995;28;20453;-83
2022/07/24 02:08:46;;;;;;;11.40;10.30;;;;;;;21.39;73.30;156863.59;5070990;28;20448;-82
2022/07/24 02:11:13;;;;;;;12.23;11.13;;;;;;;21.34;73.56;156851.81;5088750;28;20534;-82
2022/07/24 02:13:41;;;;;;;13.90;10.17;;;;;;;21.28;74.08;156834.88;5065640;28;20556;-82
2022/07/24 02:16:08;;;;;;;11.87;10.60;;;;;;;21.27;74.10;156832.25;5089870;28;20449;-82
2022/07/24 02:18:34;;;;;;;11.53;10.53;;;;;;;21.25;74.15;156828.34;5092247;28;20532;-82
2022/07/24 02:21:01;;;;;;;12.53;11.33;;;;;;;21.19;74.82;156812.69;5092984;28;20472;-82
2022/07/24 02:23:28;;;;;;;13.10;11.80;;;;;;;21.18;75.43;156811.38;5093154;28;20443;-82
2022/07/24 02:25:54;;;;;;;15.97;14.33;;;;;;;21.14;77.38;156800.94;5072813;28;21023;-82
2022/07/24 02:28:21;;;;;;;16.60;14.90;;;;;;;21.14;77.83;156799.63;5091714;28;20533;-82
2022/07/24 02:30:50;;;;;;;17.33;15.53;;;;;;;21.13;78.70;156797.00;5069738;28;20531;-82
2022/07/24 02:33:16;;;;;;;15.60;14.10;;;;;;;21.08;79.88;156783.97;5090307;28;20479;-82
2022/07/24 02:35:43;;;;;;;16.33;14.63;;;;;;;21.08;79.05;156783.97;5090302;28;20476;-82
2022/07/24 02:38:10;;;;;;;17.07;15.33;;;;;;;21.06;79.53;156778.69;5091881;28;20557;-82
2022/07/24 02:40:37;;;;;;;16.43;14.87;;;;;;;21.07;79.42;156782.69;5091169;28;20452;-82
2022/07/24 02:43:03;;;;;;;16.83;15.23;;;;;;;21.07;79.40;156782.69;5092805;28;20520;-83
2022/07/24 02:45:30;;;;;;;15.87;14.40;;;;;;;21.07;79.36;156781.38;5073002;28;20541;-83
2022/07/24 02:47:59;;;;;;;15.77;14.17;;;;;;;21.02;79.51;156769.56;5057682;28;21024;-83
2022/07/24 02:50:30;;;;;;;16.20;14.67;;;;;;;21.03;79.13;156770.88;5081374;28;20855;-83
2022/07/24 02:52:57;;;;;;;16.77;15.17;;;;;;;20.99;79.53;156761.75;5074139;28;20445;-83
2022/07/24 02:55:24;;;;;;;16.43;14.63;;;;;;;20.93;79.95;156746.09;5091003;28;20855;-83
2022/07/24 02:57:51;;;;;;;16.53;15.00;;;;;;;20.87;80.32;156730.41;5072718;28;20548;-83
2022/07/24 03:00:18;;;;;;;16.93;15.23;;;;;;;20.85;81.04;156723.91;5089288;28;20440;-83
2022/07/24 03:02:45;;;;;;;16.87;15.17;;;;;;;20.84;81.44;156721.28;5090703;28;20473;-83
2022/07/24 03:05:14;;;;;;;16.57;15.07;;;;;;;20.82;81.73;156716.06;5089423;28;20490;-83
2022/07/24 03:07:41;;;;;;;18.13;16.43;;;;;;;20.75;82.22;156697.81;5074365;28;20445;-83
2022/07/24 03:10:10;;;;;;;16.70;14.97;;;;;;;20.76;82.59;156700.44;5089956;28;20483;-83
2022/07/24 03:12:37;;;;;;;19.60;17.80;;;;;;;20.76;82.71;156700.44;5072215;28;20473;-83
2022/07/24 03:15:04;;;;;;;18.73;16.10;;;;;;;20.75;82.88;156697.81;5088394;28;20449;-83
2022/07/24 03:17:31;;;;;;;17.80;16.00;;;;;;;20.72;83.05;156689.97;5087902;28;20508;-83
2022/07/24 03:19:58;;;;;;;19.23;17.23;;;;;;;20.73;82.78;156692.63;5090999;28;20460;-83
2022/07/24 03:22:29;;;;;;;21.37;16.30;;;;;;;20.72;83.10;156689.97;5070501;28;20449;-83
2022/07/24 03:24:56;;;;;;;18.90;17.10;;;;;;;20.71;83.07;156688.66;5071896;28;20453;-83
2022/07/24 03:27:23;;;;;;;17.10;15.40;;;;;;;20.69;83.04;156683.47;5089729;28;20456;-83
2022/07/24 03:29:49;;;;;;;17.50;15.80;;;;;;;20.67;82.93;156676.94;5076412;28;20453;-83
2022/07/24 03:32:16;;;;;;;17.57;15.97;;;;;;;20.63;83.46;156667.78;5069937;28;20883;-82
2022/07/24 03:34:43;;;;;;;18.60;16.80;;;;;;;20.56;83.82;156650.84;5090175;28;20548;-82
2022/07/24 03:37:10;;;;;;;18.30;16.50;;;;;;;20.53;83.94;156643.03;5069159;28;20502;-82
2022/07/24 03:39:38;;;;;;;17.70;16.00;;;;;;;20.49;83.97;156632.56;5089958;28;20449;-82
2022/07/24 03:42:04;;;;;;;18.77;16.97;;;;;;;20.48;84.53;156628.66;5091032;28;20530;-82
2022/07/24 03:44:31;;;;;;;17.23;15.53;;;;;;;20.43;84.60;156615.63;5089821;28;20548;-82
2022/07/24 03:46:58;;;;;;;18.57;16.80;;;;;;;20.42;84.95;156614.31;5070922;28;20869;-83
2022/07/24 03:49:25;;;;;;;16.70;15.10;;;;;;;20.37;85.32;156599.97;5087582;28;20474;-82
2022/07/24 03:51:51;;;;;;;18.97;16.97;;;;;;;20.36;84.69;156597.38;5088922;28;20541;-82
2022/07/24 03:54:18;;;;;;;16.83;14.93;;;;;;;20.35;84.97;156594.75;5071513;28;20481;-82
2022/07/24 03:56:46;;;;;;;16.37;14.80;;;;;;;20.32;85.02;156588.25;5072175;28;20441;-81
2022/07/24 03:59:13;;;;;;;17.47;15.80;;;;;;;20.29;85.33;156580.41;5071748;28;20472;-82
2022/07/24 04:01:40;;;;;;;16.10;14.40;;;;;;;20.28;85.97;156577.78;5070747;28;20449;-82
2022/07/24 04:04:07;;;;;;;17.47;15.77;;;;;;;20.29;85.41;156579.09;5091473;28;20433;-82
2022/07/24 04:06:34;;;;;;;15.70;14.30;;;;;;;20.29;85.38;156579.09;5087915;28;20461;-82
2022/07/24 04:09:03;;;;;;;16.40;14.83;;;;;;;20.29;85.31;156580.41;5089374;28;20955;-82
2022/07/24 04:11:30;;;;;;;18.30;15.40;;;;;;;20.31;85.17;156585.63;5069678;28;20565;-82
2022/07/24 04:13:58;;;;;;;17.33;15.53;;;;;;;20.33;85.00;156589.56;5088468;28;20444;-82
2022/07/24 04:16:25;;;;;;;14.60;13.20;;;;;;;20.34;84.90;156593.44;5070882;28;20460;-82
2022/07/24 04:18:51;;;;;;;16.60;14.30;;;;;;;20.36;84.81;156597.38;5090654;28;20457;-83
2022/07/24 04:21:19;;;;;;;15.77;14.27;;;;;;;20.37;84.53;156601.28;5089070;28;20535;-82
2022/07/24 04:23:45;;;;;;;15.50;14.10;;;;;;;20.40;84.70;156609.09;5072412;28;20999;-82
2022/07/24 04:26:12;;;;;;;15.30;13.80;;;;;;;20.45;84.54;156622.16;5070701;28;20457;-82
2022/07/24 04:28:39;;;;;;;15.47;13.67;;;;;;;20.49;84.38;156632.56;5073460;28;20536;-82
2022/07/24 04:31:07;;;;;;;15.40;13.90;;;;;;;20.49;84.33;156632.56;5094525;28;20452;-82
2022/07/24 04:33:34;;;;;;;16.97;15.37;;;;;;;20.53;84.35;156643.03;5094494;28;20440;-82
2022/07/24 04:36:01;;;;;;;14.77;13.43;;;;;;;20.60;84.07;156661.28;5094597;28;20452;-82
2022/07/24 04:38:28;;;;;;;16.73;15.13;;;;;;;20.77;83.63;156704.34;5095796;28;21061;-82
2022/07/24 04:40:55;;;;;;;15.83;14.27;;;;;;;20.93;83.06;156744.78;5092285;28;20449;-82
2022/07/24 04:43:22;;;;;;;15.90;14.30;;;;;;;21.08;82.09;156783.97;5093633;28;20536;-82
2022/07/24 04:45:48;;;;;;;15.07;13.50;;;;;;;21.22;81.08;156821.84;5092650;28;20467;-82
2022/07/24 04:48:16;;;;;;;16.67;14.97;;;;;;;21.37;80.35;156859.66;5095197;28;20466;-82
2022/07/24 04:50:45;;;;;;;15.83;14.17;;;;;;;21.54;80.22;156904.06;5092800;28;20457;-82
2022/07/24 04:53:12;;;;;;;16.63;14.80;;;;;;;21.75;79.99;156958.91;5094214;28;20480;-82
2022/07/24 04:55:39;;;;;;;16.33;14.20;;;;;;;21.91;79.27;156999.41;5074423;28;20484;-82
2022/07/24 04:58:06;;;;;;;15.67;14.07;;;;;;;22.02;78.82;157026.84;5074819;28;20524;-82
2022/07/24 05:00:32;;;;;;;15.97;14.37;;;;;;;22.11;78.26;157050.31;5090955;28;20453;-82
2022/07/24 05:02:59;;;;;;;16.00;14.60;;;;;;;22.26;78.02;157089.53;5076688;28;20932;-82
2022/07/24 05:05:27;;;;;;;17.83;16.23;;;;;;;22.32;78.00;157106.47;5075593;28;20963;-82
2022/07/24 05:07:54;;;;;;;18.03;16.33;;;;;;;22.47;77.51;157144.38;5075825;28;20510;-82
2022/07/24 05:10:21;;;;;;;17.23;15.63;;;;;;;22.55;77.64;157163.97;5073626;28;20808;-82
2022/07/24 05:12:47;;;;;;;17.43;15.83;;;;;;;22.68;77.77;157199.31;5058954;28;20591;-81
2022/07/24 05:15:14;;;;;;;17.50;15.90;;;;;;;22.82;76.06;157235.84;5092404;28;20477;-81
2022/07/24 05:17:41;;;;;;;16.67;14.97;;;;;;;22.90;76.19;157256.75;5093429;28;20535;-81
2022/07/24 05:20:10;;;;;;;16.70;15.20;;;;;;;23.01;74.93;157284.19;5093728;28;20434;-81
2022/07/24 05:22:38;;;;;;;16.70;15.20;;;;;;;23.11;74.60;157309.06;5092924;28;20811;-81
2022/07/24 05:25:05;;;;;;;16.60;14.97;;;;;;;23.25;74.19;157345.63;5093503;28;20464;-81
2022/07/24 05:27:32;;;;;;;16.40;14.90;;;;;;;23.43;73.63;157392.75;5091403;28;20445;-81
2022/07/24 05:29:59;;;;;;;16.70;15.10;;;;;;;23.44;72.70;157395.34;5094319;28;20496;-81
2022/07/24 05:32:25;;;;;;;15.93;14.47;;;;;;;23.61;72.52;157439.81;5073965;28;20460;-81
2022/07/24 05:34:52;;;;;;;14.30;13.00;;;;;;;23.76;72.21;157479.00;5089823;28;20441;-81
2022/07/24 05:37:19;;;;;;;16.93;15.33;;;;;;;23.77;71.23;157481.66;5091694;28;20492;-81
2022/07/24 05:39:47;;;;;;;15.70;14.30;;;;;;;23.90;70.93;157515.63;5075971;28;20441;-81
2022/07/24 05:42:14;;;;;;;16.03;14.43;;;;;;;23.91;70.65;157516.91;5057040;28;20454;-82
2022/07/24 05:44:40;;;;;;;16.60;15.03;;;;;;;23.98;70.32;157536.56;5092409;28;20565;-82
2022/07/24 05:47:07;;;;;;;15.57;14.07;;;;;;;24.23;70.40;157601.97;5078083;28;20482;-82
2022/07/24 05:49:34;;;;;;;16.73;15.20;;;;;;;24.48;69.14;157664.75;5059849;28;20484;-82
2022/07/24 05:52:02;;;;;;;16.37;14.77;;;;;;;24.68;68.50;157717.06;5092538;28;20473;-81
2022/07/24 05:54:29;;;;;;;16.40;14.90;;;;;;;24.90;67.50;157773.38;5074029;28;20453;-86
2022/07/24 05:56:57;;;;;;;16.90;15.33;;;;;;;25.11;66.00;157828.31;5074814;28;20528;-85
2022/07/24 05:59:23;;;;;;;16.73;15.27;;;;;;;25.23;65.24;157861.03;5091918;28;20820;-85
2022/07/24 06:01:50;;;;;;;15.20;13.70;;;;;;;25.48;64.41;157925.22;5092795;28;20526;-85
2022/07/24 06:04:17;;;;;;;16.90;15.10;;;;;;;25.59;63.20;157952.69;5090573;28;20490;-85
2022/07/24 06:06:43;;;;;;;14.90;13.50;;;;;;;25.79;62.27;158005.03;5091076;28;20555;-85
2022/07/24 06:09:10;;;;;;;15.73;14.33;;;;;;;25.86;61.64;158023.41;5073505;28;20535;-85
2022/07/24 06:11:37;;;;;;;14.50;13.30;;;;;;;25.89;60.04;158031.25;5073507;28;20805;-85
2022/07/24 06:14:05;;;;;;;15.17;13.67;;;;;;;25.79;60.11;158005.03;5090123;28;20886;-85
2022/07/24 06:16:32;;;;;;;13.63;12.47;;;;;;;25.94;60.58;158045.66;5073836;28;20492;-85
2022/07/24 06:18:59;;;;;;;15.53;13.77;;;;;;;26.29;58.98;158134.75;5089447;28;20475;-85
2022/07/24 06:21:26;;;;;;;13.77;12.47;;;;;;;26.55;58.42;158202.84;5092450;28;20511;-86
2022/07/24 06:23:53;;;;;;;13.50;12.27;;;;;;;26.69;58.45;158238.22;5092645;28;20437;-86
2022/07/24 06:26:19;;;;;;;13.70;12.60;;;;;;;27.02;58.51;158326.03;5091206;28;20798;-87
2022/07/24 06:28:46;;;;;;;13.80;12.70;;;;;;;27.18;56.32;158366.63;5090200;28;20505;-87
2022/07/24 06:31:14;;;;;;;12.70;11.60;;;;;;;27.19;54.90;158370.56;5090796;28;20506;-87
2022/07/24 06:33:41;;;;;;;12.33;11.33;;;;;;;27.31;56.02;158400.69;5090546;28;20553;-87
2022/07/24 06:36:09;;;;;;;12.00;11.10;;;;;;;27.49;54.36;158447.94;5091852;28;20455;-87
2022/07/24 06:38:37;;;;;;;12.30;11.10;;;;;;;27.53;53.58;158457.13;5055932;28;20544;-87
2022/07/24 06:41:03;;;;;;;13.13;12.03;;;;;;;27.59;54.42;158474.13;5073097;28;20493;-85
2022/07/24 06:43:30;;;;;;;13.37;12.23;;;;;;;27.37;54.32;158416.44;5091160;28;20445;-87
2022/07/24 06:45:57;;;;;;;13.20;12.00;;;;;;;27.66;53.78;158492.50;5089729;28;20457;-87
2022/07/24 06:48:25;;;;;;;12.53;11.33;;;;;;;27.96;54.24;158569.81;5073771;28;20594;-87
2022/07/24 06:50:52;;;;;;;12.80;11.70;;;;;;;28.07;52.76;158597.38;5072804;28;20455;-87
2022/07/24 06:53:19;;;;;;;12.60;11.60;;;;;;;28.23;51.21;158639.34;5091344;28;20487;-88
2022/07/24 06:55:46;;;;;;;13.30;12.10;;;;;;;28.40;51.89;158683.94;5072376;28;20453;-87
2022/07/24 06:58:13;;;;;;;14.07;12.77;;;;;;;28.46;51.97;158699.69;5057455;28;20488;-87
2022/07/24 07:00:40;;;;;;;13.17;11.97;;;;;;;28.71;51.50;158765.28;5092007;28;20453;-87
2022/07/24 07:03:07;;;;;;;12.40;11.30;;;;;;;28.74;51.04;158771.84;5067193;28;20532;-88
2022/07/24 07:05:35;;;;;;;12.50;11.40;;;;;;;28.93;51.09;158821.69;5090317;28;20470;-87
2022/07/24 07:08:01;;;;;;;13.23;12.03;;;;;;;29.09;49.83;158862.34;5089305;28;20470;-88
2022/07/24 07:10:28;;;;;;;11.57;10.53;;;;;;;29.30;50.22;158918.81;5072074;28;20876;-87
2022/07/24 07:12:55;;;;;;;11.70;10.70;;;;;;;29.52;48.93;158975.25;5053263;28;20481;-88
2022/07/24 07:15:23;;;;;;;12.53;11.47;;;;;;;29.90;47.63;159075.00;5082512;28;20520;-88
2022/07/24 07:17:55;;;;;;;11.13;10.23;;;;;;;29.76;47.13;159038.19;5072688;28;20441;-88
2022/07/24 07:20:22;;;;;;;11.50;10.40;;;;;;;29.56;46.90;158987.03;5055243;28;20457;-88
2022/07/24 07:22:50;;;;;;;12.63;11.50;;;;;;;29.26;48.04;158906.97;5072250;28;20514;-88
2022/07/24 07:25:17;;;;;;;12.83;11.83;;;;;;;29.23;47.46;158899.16;5088047;28;20947;-88
2022/07/24 07:27:43;;;;;;;12.07;11.00;;;;;;;29.62;47.73;159000.16;5072325;28;20943;-88
2022/07/24 07:30:12;;;;;;;10.53;9.63;;;;;;;29.93;45.79;159081.56;5072955;28;20447;-88
2022/07/24 07:32:39;;;;;;;10.60;9.60;;;;;;;29.53;45.40;158979.16;5075341;28;20485;-87
2022/07/24 07:35:06;;;;;;;10.93;10.13;;;;;;;29.96;44.46;159090.78;5058505;28;20512;-88
2022/07/24 07:37:33;;;;;;;10.50;9.60;;;;;;;30.22;45.34;159157.69;5093106;28;20845;-88
2022/07/24 07:40:02;;;;;;;10.30;9.40;;;;;;;30.44;42.56;159214.22;5092429;28;20421;-90
2022/07/24 07:42:29;;;;;;;9.97;9.23;;;;;;;30.24;43.19;159162.94;5073843;28;20468;-88
2022/07/24 07:44:56;;;;;;;10.00;9.30;;;;;;;30.63;42.46;159264.13;5091082;28;20456;-88
2022/07/24 07:47:23;;;;;;;9.53;8.73;;;;;;;30.74;41.91;159292.97;5073380;28;20854;-87
2022/07/24 07:49:49;;;;;;;9.27;8.57;;;;;;;30.85;42.10;159321.84;5091848;28;20927;-87
2022/07/24 07:52:16;;;;;;;9.90;9.00;;;;;;;31.13;42.21;159395.50;5072583;28;20456;-78
2022/07/24 07:54:45;;;;;;;10.30;9.50;;;;;;;31.20;42.41;159413.84;5088689;28;21014;-79
2022/07/24 07:57:13;;;;;;;10.00;9.10;;;;;;;31.24;41.03;159423.06;5090081;28;20562;-79
2022/07/24 07:59:39;;;;;;;9.80;9.00;;;;;;;31.12;40.31;159391.53;5092117;28;20417;-79
2022/07/24 08:02:06;;;;;;;10.43;9.50;;;;;;;30.69;42.83;159279.84;5081063;28;20543;-79
2022/07/24 08:04:33;;;;;;;11.23;9.87;;;;;;;30.03;43.67;159109.13;5066697;28;20480;-79
2022/07/24 08:06:59;;;;;;;9.87;9.13;;;;;;;30.20;43.28;159152.47;5088951;28;20491;-79
2022/07/24 08:09:26;;;;;;;10.00;9.20;;;;;;;30.47;42.89;159223.41;5069710;28;20449;-79
2022/07/24 08:11:53;;;;;;;10.77;9.73;;;;;;;30.76;42.67;159299.53;5086806;28;20492;-79
2022/07/24 08:14:21;;;;;;;10.50;9.57;;;;;;;31.17;42.28;159405.97;5072078;28;20527;-79
2022/07/24 08:16:50;;;;;;;10.23;9.40;;;;;;;31.16;41.67;159402.06;5071446;28;20449;-79
2022/07/24 08:19:16;;;;;;;10.43;9.53;;;;;;;31.01;42.05;159363.94;5070654;28;20457;-79
2022/07/24 08:21:43;;;;;;;11.00;9.60;;;;;;;31.27;41.74;159432.22;5086946;28;20461;-79
2022/07/24 08:24:10;;;;;;;8.50;7.90;;;;;;;31.58;39.58;159511.13;5073145;28;20530;-79
2022/07/24 08:26:36;;;;;;;9.30;8.60;;;;;;;31.71;39.30;159546.59;5090386;28;20468;-79
2022/07/24 08:29:03;;;;;;;10.17;9.27;;;;;;;32.05;39.05;159634.69;5089374;28;20468;-78
2022/07/24 08:31:31;;;;;;;9.30;8.60;;;;;;;32.38;39.10;159721.38;5088172;28;20541;-78
2022/07/24 08:33:58;;;;;;;9.93;9.13;;;;;;;32.29;39.08;159697.75;5093188;28;20500;-78
2022/07/24 08:36:25;;;;;;;9.90;9.10;;;;;;;32.54;39.48;159760.91;5087355;28;20445;-78
2022/07/24 08:38:52;;;;;;;11.00;10.20;;;;;;;32.44;38.87;159735.84;5089633;28;20829;-78
2022/07/24 08:41:20;;;;;;;9.93;9.13;;;;;;;32.57;38.96;159768.81;5090496;28;20464;-78
2022/07/24 08:43:47;;;;;;;10.27;9.47;;;;;;;32.67;39.22;159795.09;5071738;28;20463;-78
2022/07/24 08:46:15;;;;;;;9.30;8.60;;;;;;;32.92;37.36;159862.13;5069980;28;20456;-78
2022/07/24 08:48:45;;;;;;;9.77;9.00;;;;;;;32.68;38.22;159797.69;5071577;28;20490;-78
2022/07/24 08:51:13;;;;;;;10.17;9.20;;;;;;;32.53;38.11;159758.25;5087969;28;20454;-78
2022/07/24 08:53:40;;;;;;;9.30;8.60;;;;;;;32.16;39.04;159663.59;5065692;28;20469;-78
2022/07/24 08:56:07;;;;;;;10.63;9.80;;;;;;;31.44;39.41;159475.59;5081847;28;20488;-78
2022/07/24 08:58:37;;;;;;;10.97;9.97;;;;;;;31.62;39.35;159521.59;5071335;28;20579;-78
2022/07/24 09:01:04;;;;;;;9.33;8.37;;;;;;;31.88;39.57;159589.91;5071622;28;20441;-78
2022/07/24 09:03:39;;;;;;;9.93;8.93;;;;;;;32.36;39.49;159716.13;5088768;28;20459;-78
2022/07/24 09:06:08;;;;;;;10.70;9.90;;;;;;;32.65;38.45;159791.09;5071156;28;20531;-78
2022/07/24 09:08:35;;;;;;;10.10;9.20;;;;;;;32.75;38.02;159817.38;5065580;28;20547;-78
2022/07/24 09:11:04;;;;;;;9.50;8.80;;;;;;;32.67;38.87;159795.09;5088322;28;20463;-78
2022/07/24 09:14:29;;;;;;;10.50;9.70;;;;;;;32.47;38.09;159745.06;5088690;28;20736;-78
2022/07/24 09:16:22;;;;;;;10.03;9.33;;;;;;;32.35;37.66;159713.53;5090402;28;20475;-78
2022/07/24 09:18:49;;;;;;;11.10;10.20;;;;;;;32.37;37.91;159717.47;5074719;28;20455;-79
2022/07/24 09:21:18;;;;;;;9.40;8.70;;;;;;;32.77;38.23;159821.38;5093448;28;20445;-79
2022/07/24 09:23:45;;;;;;;9.43;8.73;;;;;;;32.70;36.72;159804.25;5074837;28;20462;-79
2022/07/24 09:26:12;;;;;;;10.93;10.03;;;;;;;32.90;38.17;159855.53;5092387;28;20468;-79
2022/07/24 09:28:50;;;;;;;11.13;10.03;;;;;;;33.12;36.59;159912.13;5074237;28;20448;-78
2022/07/24 09:31:17;;;;;;;10.70;9.80;;;;;;;33.15;36.27;159921.31;5092710;28;20452;-79
2022/07/24 09:33:44;;;;;;;10.83;9.83;;;;;;;33.38;37.39;159980.50;5091082;28;20551;-78
2022/07/24 09:36:15;;;;;;;9.53;8.73;;;;;;;33.54;35.76;160023.94;5089716;28;20449;-79
2022/07/24 09:38:47;;;;;;;9.80;9.10;;;;;;;33.10;36.90;159908.16;5073795;28;20568;-79
2022/07/24 09:41:20;;;;;;;9.87;9.07;;;;;;;32.97;37.43;159875.25;5092045;28;20479;-78
2022/07/24 09:43:57;;;;;;;10.50;9.70;;;;;;;33.19;35.90;159930.53;5092409;28;20436;-79
2022/07/24 09:46:26;;;;;;;9.27;8.57;;;;;;;33.28;36.20;159955.50;5073792;28;20471;-78
2022/07/24 09:48:53;;;;;;;10.03;9.27;;;;;;;33.07;36.57;159900.25;5075686;28;20440;-79
2022/07/24 09:51:21;;;;;;;10.03;9.03;;;;;;;32.66;37.00;159792.44;5066866;28;20523;-78
2022/07/24 09:53:54;;;;;;;9.60;8.90;;;;;;;32.95;35.93;159868.69;5059203;28;20464;-78
2022/07/24 09:56:21;;;;;;;10.13;9.07;;;;;;;32.98;36.99;159877.91;5093673;28;20427;-78
2022/07/24 09:58:50;;;;;;;10.30;9.47;;;;;;;33.04;36.18;159892.38;5074855;28;20498;-78
2022/07/24 10:01:18;;;;;;;9.80;9.10;;;;;;;32.36;37.16;159716.13;5093079;28;20502;-76
2022/07/24 10:03:46;;;;;;;9.83;8.93;;;;;;;32.55;38.22;159763.50;5081721;28;20433;-78
2022/07/24 10:06:15;;;;;;;10.97;9.97;;;;;;;33.08;37.02;159902.91;5090189;28;20436;-78
2022/07/24 10:08:43;;;;;;;9.50;8.77;;;;;;;33.47;36.24;160005.47;5090710;28;20424;-78
2022/07/24 10:11:12;;;;;;;10.40;9.60;;;;;;;33.66;35.53;160055.53;5091653;28;20570;-78
2022/07/24 10:13:39;;;;;;;10.10;9.30;;;;;;;33.55;35.08;160026.53;5089605;28;20495;-78
2022/07/24 10:16:27;;;;;;;10.63;9.70;;;;;;;32.74;37.17;159814.78;5091877;28;20820;-78
2022/07/24 10:18:55;;;;;;;10.33;9.43;;;;;;;32.84;36.30;159839.75;5053604;28;20471;-78
2022/07/24 10:21:24;;;;;;;11.17;10.27;;;;;;;32.70;35.99;159804.25;5078611;28;20455;-78
2022/07/24 10:24:13;;;;;;;10.73;9.63;;;;;;;32.81;37.66;159831.84;5090840;28;20517;-78
2022/07/24 10:26:43;;;;;;;10.90;10.00;;;;;;;32.16;37.94;159662.28;5073419;28;20495;-78
2022/07/24 10:29:11;;;;;;;10.40;9.60;;;;;;;31.96;38.46;159610.94;5057538;28;20774;-78
2022/07/24 10:31:39;;;;;;;11.60;10.60;;;;;;;31.85;39.61;159582.06;5073077;28;20522;-78
2022/07/24 10:34:12;;;;;;;10.77;9.67;;;;;;;31.34;39.73;159450.66;5088886;28;20820;-78
2022/07/24 10:36:46;;;;;;;10.67;9.87;;;;;;;31.49;40.87;159487.44;5073785;28;20496;-78
2022/07/24 10:39:17;;;;;;;10.73;9.83;;;;;;;31.17;39.77;159404.66;5092610;28;20413;-78
2022/07/24 10:42:00;;;;;;;10.87;9.87;;;;;;;31.15;39.70;159400.72;5072292;28;20449;-78
2022/07/24 10:44:27;;;;;;;11.50;10.60;;;;;;;30.91;40.32;159337.69;5092081;28;20433;-78
2022/07/24 10:47:01;;;;;;;11.40;10.40;;;;;;;31.02;40.45;159365.25;5090156;28;20718;-78
2022/07/24 10:49:47;;;;;;;10.90;10.00;;;;;;;31.14;40.41;159398.09;5071205;28;20441;-78
2022/07/24 10:52:23;;;;;;;10.03;9.23;;;;;;;30.65;40.53;159269.34;5087415;28;20453;-78
2022/07/24 10:55:40;;;;;;;10.97;10.07;;;;;;;30.29;41.21;159176.06;5089183;28;20919;-78
2022/07/24 10:58:15;;;;;;;10.67;9.73;;;;;;;30.28;41.88;159173.47;5026392;28;20889;-78
2022/07/24 11:00:45;;;;;;;11.40;10.40;;;;;;;30.37;41.35;159195.84;5062552;28;20453;-78
2022/07/24 11:03:19;;;;;;;11.47;10.57;;;;;;;30.32;41.00;159183.94;5073269;28;20467;-77
2022/07/24 11:06:05;;;;;;;10.43;9.47;;;;;;;30.45;41.33;159216.81;5089048;28;20461;-78
2022/07/24 11:08:33;;;;;;;10.77;9.87;;;;;;;30.51;41.17;159232.56;5084499;28;20774;-77
2022/07/24 11:11:15;;;;;;;11.30;10.20;;;;;;;29.99;41.81;159097.34;5083102;28;21317;-77
2022/07/24 11:13:48;;;;;;;11.43;10.53;;;;;;;29.71;41.79;159025.09;5070631;28;20612;-77
2022/07/24 11:16:23;;;;;;;10.80;10.00;;;;;;;29.61;41.91;158997.53;5087348;28;20502;-77